sensor_id;sensor_type;location;lat;lon;timestamp;temperature;humidity
53073;DHT22;38955;48.916;2.336;2023-11-21T00:00:14;13.20;99.90
53073;DHT22;38955;48.916;2.336;2023-11-21T00:02:18;13.20;99.90
53073;DHT22;38955;48.916;2.336;2023-11-21T00:04:20;13.30;99.90
53073;DHT22;38955;48.916;2.336;2023-11-21T00:06:24;13.30;99.90
53073;DHT22;38955;48.916;2.336;2023-11-21T00:08:26;13.30;99.90
53073;DHT22;38955;48.916;2.336;2023-11-21T00:10:29;13.20;99.90
53073;DHT22;38955;48.916;2.336;2023-11-21T00:12:32;13.10;99.90
53073;DHT22;38955;48.916;2.336;2023-11-21T00:14:35;13.10;99.90
53073;DHT22;38955;48.916;2.336;2023-11-21T00:16:37;13.20;99.90
53073;DHT22;38955;48.916;2.336;2023-11-21T00:18:39;13.30;99.90
53073;DHT22;38955;48.916;2.336;2023-11-21T00:20:41;13.20;99.90
53073;DHT22;38955;48.916;2.336;2023-11-21T00:22:45;13.30;99.90
53073;DHT22;38955;48.916;2.336;2023-11-21T00:24:48;13.20;99.90
53073;DHT22;38955;48.916;2.336;2023-11-21T00:26:50;13.30;99.90
53073;DHT22;38955;48.916;2.336;2023-11-21T00:28:53;13.20;99.90
53073;DHT22;38955;48.916;2.336;2023-11-21T00:30:55;13.20;99.90
53073;DHT22;38955;48.916;2.336;2023-11-21T00:32:57;13.20;99.90
53073;DHT22;38955;48.916;2.336;2023-11-21T00:34:59;13.10;99.90
53073;DHT22;38955;48.916;2.336;2023-11-21T00:37:01;13.10;99.90
53073;DHT22;38955;48.916;2.336;2023-11-21T00:39:06;13.10;99.90
53073;DHT22;38955;48.916;2.336;2023-11-21T00:41:09;13.00;99.90
53073;DHT22;38955;48.916;2.336;2023-11-21T00:43:11;12.90;99.90
53073;DHT22;38955;48.916;2.336;2023-11-21T00:45:13;12.90;99.90
53073;DHT22;38955;48.916;2.336;2023-11-21T00:47:17;13.00;99.90
53073;DHT22;38955;48.916;2.336;2023-11-21T00:49:23;12.90;99.90
53073;DHT22;38955;48.916;2.336;2023-11-21T00:51:25;12.90;99.90
53073;DHT22;38955;48.916;2.336;2023-11-21T00:53:27;12.90;99.90
53073;DHT22;38955;48.916;2.336;2023-11-21T00:55:31;13.00;99.90
53073;DHT22;38955;48.916;2.336;2023-11-21T00:57:35;12.90;99.90
53073;DHT22;38955;48.916;2.336;2023-11-21T00:59:37;12.80;99.90
53073;DHT22;38955;48.916;2.336;2023-11-21T01:01:39;12.70;99.90
53073;DHT22;38955;48.916;2.336;2023-11-21T01:03:42;12.70;99.90
53073;DHT22;38955;48.916;2.336;2023-11-21T01:05:44;12.70;99.90
53073;DHT22;38955;48.916;2.336;2023-11-21T01:07:47;12.60;99.90
53073;DHT22;38955;48.916;2.336;2023-11-21T01:09:49;12.70;99.90
53073;DHT22;38955;48.916;2.336;2023-11-21T01:11:52;12.80;99.90
53073;DHT22;38955;48.916;2.336;2023-11-21T01:13:58;12.80;99.90
53073;DHT22;38955;48.916;2.336;2023-11-21T01:16:01;12.80;99.90
53073;DHT22;38955;48.916;2.336;2023-11-21T01:18:04;12.80;99.90
53073;DHT22;38955;48.916;2.336;2023-11-21T01:20:07;12.80;99.90
53073;DHT22;38955;48.916;2.336;2023-11-21T01:22:19;12.70;99.90
53073;DHT22;38955;48.916;2.336;2023-11-21T01:24:27;12.60;99.90
53073;DHT22;38955;48.916;2.336;2023-11-21T01:26:30;12.60;99.90
53073;DHT22;38955;48.916;2.336;2023-11-21T01:28:34;12.60;99.90
53073;DHT22;38955;48.916;2.336;2023-11-21T01:30:37;12.60;99.90
53073;DHT22;38955;48.916;2.336;2023-11-21T01:32:39;12.60;99.90
53073;DHT22;38955;48.916;2.336;2023-11-21T01:34:42;12.70;99.90
53073;DHT22;38955;48.916;2.336;2023-11-21T01:36:46;12.60;99.90
53073;DHT22;38955;48.916;2.336;2023-11-21T01:38:48;12.70;99.90
53073;DHT22;38955;48.916;2.336;2023-11-21T01:40:51;12.80;99.90
53073;DHT22;38955;48.916;2.336;2023-11-21T01:42:53;12.80;99.90
53073;DHT22;38955;48.916;2.336;2023-11-21T01:44:57;12.80;99.90
53073;DHT22;38955;48.916;2.336;2023-11-21T01:46:59;12.70;99.90
53073;DHT22;38955;48.916;2.336;2023-11-21T01:49:06;12.60;99.90
53073;DHT22;38955;48.916;2.336;2023-11-21T01:51:08;12.50;99.90
53073;DHT22;38955;48.916;2.336;2023-11-21T01:53:12;12.50;99.90
53073;DHT22;38955;48.916;2.336;2023-11-21T01:55:17;12.60;99.90
53073;DHT22;38955;48.916;2.336;2023-11-21T01:57:29;12.70;99.90
53073;DHT22;38955;48.916;2.336;2023-11-21T01:59:34;12.70;99.90
53073;DHT22;38955;48.916;2.336;2023-11-21T02:01:40;12.80;99.90
53073;DHT22;38955;48.916;2.336;2023-11-21T02:03:43;12.90;99.90
53073;DHT22;38955;48.916;2.336;2023-11-21T02:05:45;12.80;99.90
53073;DHT22;38955;48.916;2.336;2023-11-21T02:07:48;12.80;99.90
53073;DHT22;38955;48.916;2.336;2023-11-21T02:09:50;12.80;99.90
53073;DHT22;38955;48.916;2.336;2023-11-21T02:12:00;12.80;99.90
53073;DHT22;38955;48.916;2.336;2023-11-21T02:14:02;12.80;99.90
53073;DHT22;38955;48.916;2.336;2023-11-21T02:16:06;12.60;99.90
53073;DHT22;38955;48.916;2.336;2023-11-21T02:18:10;12.70;99.90
53073;DHT22;38955;48.916;2.336;2023-11-21T02:20:13;12.80;99.90
53073;DHT22;38955;48.916;2.336;2023-11-21T02:22:19;12.80;99.90
53073;DHT22;38955;48.916;2.336;2023-11-21T02:24:24;12.80;99.90
53073;DHT22;38955;48.916;2.336;2023-11-21T02:26:26;12.80;99.90
53073;DHT22;38955;48.916;2.336;2023-11-21T02:28:31;12.90;99.90
53073;DHT22;38955;48.916;2.336;2023-11-21T02:30:35;13.00;99.90
53073;DHT22;38955;48.916;2.336;2023-11-21T02:32:38;12.90;99.90
53073;DHT22;38955;48.916;2.336;2023-11-21T02:34:50;13.00;99.90
53073;DHT22;38955;48.916;2.336;2023-11-21T02:36:52;12.90;99.90
53073;DHT22;38955;48.916;2.336;2023-11-21T02:38:56;12.80;99.90
53073;DHT22;38955;48.916;2.336;2023-11-21T02:40:59;12.90;99.90
53073;DHT22;38955;48.916;2.336;2023-11-21T02:43:01;13.00;99.90
53073;DHT22;38955;48.916;2.336;2023-11-21T02:45:05;13.00;99.90
53073;DHT22;38955;48.916;2.336;2023-11-21T02:47:08;12.90;99.90
53073;DHT22;38955;48.916;2.336;2023-11-21T02:49:11;12.90;99.90
53073;DHT22;38955;48.916;2.336;2023-11-21T02:51:14;13.00;99.90
53073;DHT22;38955;48.916;2.336;2023-11-21T02:53:18;13.00;99.90
53073;DHT22;38955;48.916;2.336;2023-11-21T02:55:20;13.00;99.90
53073;DHT22;38955;48.916;2.336;2023-11-21T02:57:24;13.00;99.90
53073;DHT22;38955;48.916;2.336;2023-11-21T02:59:30;13.00;99.90
53073;DHT22;38955;48.916;2.336;2023-11-21T03:01:33;12.90;99.90
53073;DHT22;38955;48.916;2.336;2023-11-21T03:03:36;12.90;99.90
53073;DHT22;38955;48.916;2.336;2023-11-21T03:05:41;12.80;99.90
53073;DHT22;38955;48.916;2.336;2023-11-21T03:07:43;12.90;99.90
53073;DHT22;38955;48.916;2.336;2023-11-21T03:09:45;13.00;99.90
53073;DHT22;38955;48.916;2.336;2023-11-21T03:11:48;13.00;99.90
53073;DHT22;38955;48.916;2.336;2023-11-21T03:13:51;13.00;99.90
53073;DHT22;38955;48.916;2.336;2023-11-21T03:15:53;13.00;99.90
53073;DHT22;38955;48.916;2.336;2023-11-21T03:17:56;13.00;99.90
53073;DHT22;38955;48.916;2.336;2023-11-21T03:22:18;12.90;99.90
53073;DHT22;38955;48.916;2.336;2023-11-21T03:24:21;12.90;99.90
53073;DHT22;38955;48.916;2.336;2023-11-21T03:26:28;12.90;99.90
53073;DHT22;38955;48.916;2.336;2023-11-21T03:28:34;12.90;99.90
53073;DHT22;38955;48.916;2.336;2023-11-21T03:30:38;12.80;99.90
53073;DHT22;38955;48.916;2.336;2023-11-21T03:32:42;12.90;99.90
53073;DHT22;38955;48.916;2.336;2023-11-21T03:34:53;12.80;99.90
53073;DHT22;38955;48.916;2.336;2023-11-21T03:36:57;12.90;99.90
53073;DHT22;38955;48.916;2.336;2023-11-21T03:39:00;12.90;99.90
53073;DHT22;38955;48.916;2.336;2023-11-21T03:41:02;12.80;99.90
53073;DHT22;38955;48.916;2.336;2023-11-21T03:43:05;12.90;99.90
53073;DHT22;38955;48.916;2.336;2023-11-21T03:45:08;12.90;99.90
53073;DHT22;38955;48.916;2.336;2023-11-21T03:47:12;12.90;99.90
53073;DHT22;38955;48.916;2.336;2023-11-21T03:49:14;12.90;99.90
53073;DHT22;38955;48.916;2.336;2023-11-21T03:51:19;12.80;99.90
53073;DHT22;38955;48.916;2.336;2023-11-21T03:53:21;12.80;99.90
53073;DHT22;38955;48.916;2.336;2023-11-21T03:55:24;12.70;99.90
53073;DHT22;38955;48.916;2.336;2023-11-21T03:57:27;12.80;99.90
53073;DHT22;38955;48.916;2.336;2023-11-21T03:59:33;12.80;99.90
53073;DHT22;38955;48.916;2.336;2023-11-21T04:01:35;12.90;99.90
53073;DHT22;38955;48.916;2.336;2023-11-21T04:03:38;12.90;99.90
53073;DHT22;38955;48.916;2.336;2023-11-21T04:05:42;12.90;99.90
53073;DHT22;38955;48.916;2.336;2023-11-21T04:08:04;13.00;99.90
53073;DHT22;38955;48.916;2.336;2023-11-21T04:10:08;13.00;99.90
53073;DHT22;38955;48.916;2.336;2023-11-21T04:12:11;13.00;99.90
53073;DHT22;38955;48.916;2.336;2023-11-21T04:14:13;13.10;99.90
53073;DHT22;38955;48.916;2.336;2023-11-21T04:16:16;12.90;99.90
53073;DHT22;38955;48.916;2.336;2023-11-21T04:18:18;12.90;99.90
53073;DHT22;38955;48.916;2.336;2023-11-21T04:20:21;12.90;99.90
53073;DHT22;38955;48.916;2.336;2023-11-21T04:22:25;12.90;99.90
53073;DHT22;38955;48.916;2.336;2023-11-21T04:24:27;12.90;99.90
53073;DHT22;38955;48.916;2.336;2023-11-21T04:26:30;13.00;99.90
53073;DHT22;38955;48.916;2.336;2023-11-21T04:28:32;13.00;99.90
53073;DHT22;38955;48.916;2.336;2023-11-21T04:30:35;12.90;99.90
53073;DHT22;38955;48.916;2.336;2023-11-21T04:32:37;12.90;99.90
53073;DHT22;38955;48.916;2.336;2023-11-21T04:34:43;12.90;99.90
53073;DHT22;38955;48.916;2.336;2023-11-21T04:36:47;13.00;99.90
53073;DHT22;38955;48.916;2.336;2023-11-21T04:38:49;12.90;99.90
53073;DHT22;38955;48.916;2.336;2023-11-21T04:41:12;12.90;99.90
53073;DHT22;38955;48.916;2.336;2023-11-21T04:43:14;12.80;99.90
53073;DHT22;38955;48.916;2.336;2023-11-21T04:45:16;12.90;99.90
53073;DHT22;38955;48.916;2.336;2023-11-21T04:47:18;12.90;99.90
53073;DHT22;38955;48.916;2.336;2023-11-21T04:49:22;13.00;99.90
53073;DHT22;38955;48.916;2.336;2023-11-21T04:51:24;13.00;99.90
53073;DHT22;38955;48.916;2.336;2023-11-21T04:53:27;13.00;99.90
53073;DHT22;38955;48.916;2.336;2023-11-21T04:55:31;13.00;99.90
53073;DHT22;38955;48.916;2.336;2023-11-21T04:57:33;13.00;99.90
53073;DHT22;38955;48.916;2.336;2023-11-21T04:59:38;13.00;99.90
53073;DHT22;38955;48.916;2.336;2023-11-21T05:01:40;13.00;99.90
53073;DHT22;38955;48.916;2.336;2023-11-21T05:03:42;13.10;99.90
53073;DHT22;38955;48.916;2.336;2023-11-21T05:05:45;13.00;99.90
53073;DHT22;38955;48.916;2.336;2023-11-21T05:07:50;13.00;99.90
53073;DHT22;38955;48.916;2.336;2023-11-21T05:09:53;13.00;99.90
53073;DHT22;38955;48.916;2.336;2023-11-21T05:11:55;12.90;99.90
53073;DHT22;38955;48.916;2.336;2023-11-21T05:13:57;13.00;99.90
53073;DHT22;38955;48.916;2.336;2023-11-21T05:16:01;13.00;99.90
53073;DHT22;38955;48.916;2.336;2023-11-21T05:18:07;13.00;99.90
53073;DHT22;38955;48.916;2.336;2023-11-21T05:20:10;13.00;99.90
53073;DHT22;38955;48.916;2.336;2023-11-21T05:22:14;13.00;99.90
53073;DHT22;38955;48.916;2.336;2023-11-21T05:24:16;13.10;99.90
53073;DHT22;38955;48.916;2.336;2023-11-21T05:26:20;13.20;99.90
53073;DHT22;38955;48.916;2.336;2023-11-21T05:28:22;13.10;99.90
53073;DHT22;38955;48.916;2.336;2023-11-21T05:30:24;13.10;99.90
53073;DHT22;38955;48.916;2.336;2023-11-21T05:32:26;13.10;99.90
53073;DHT22;38955;48.916;2.336;2023-11-21T05:34:28;13.00;99.90
53073;DHT22;38955;48.916;2.336;2023-11-21T05:36:30;13.10;99.90
53073;DHT22;38955;48.916;2.336;2023-11-21T05:38:33;13.10;99.90
53073;DHT22;38955;48.916;2.336;2023-11-21T05:40:35;13.00;99.90
53073;DHT22;38955;48.916;2.336;2023-11-21T05:42:40;13.00;99.90
53073;DHT22;38955;48.916;2.336;2023-11-21T05:44:42;13.00;99.90
53073;DHT22;38955;48.916;2.336;2023-11-21T05:46:47;13.00;99.90
53073;DHT22;38955;48.916;2.336;2023-11-21T05:48:49;13.10;99.90
53073;DHT22;38955;48.916;2.336;2023-11-21T05:50:52;13.10;99.90
53073;DHT22;38955;48.916;2.336;2023-11-21T05:52:54;13.10;99.90
53073;DHT22;38955;48.916;2.336;2023-11-21T05:54:56;13.00;99.90
53073;DHT22;38955;48.916;2.336;2023-11-21T05:57:02;13.00;99.90
53073;DHT22;38955;48.916;2.336;2023-11-21T05:59:06;13.00;99.90
53073;DHT22;38955;48.916;2.336;2023-11-21T06:01:09;13.00;99.90
53073;DHT22;38955;48.916;2.336;2023-11-21T06:03:11;13.00;99.90
53073;DHT22;38955;48.916;2.336;2023-11-21T06:05:15;13.10;99.90
53073;DHT22;38955;48.916;2.336;2023-11-21T06:07:17;13.20;99.90
53073;DHT22;38955;48.916;2.336;2023-11-21T06:09:19;13.20;99.90
53073;DHT22;38955;48.916;2.336;2023-11-21T06:11:22;13.20;99.90
53073;DHT22;38955;48.916;2.336;2023-11-21T06:13:24;13.10;99.90
53073;DHT22;38955;48.916;2.336;2023-11-21T06:15:29;13.20;99.90
53073;DHT22;38955;48.916;2.336;2023-11-21T06:17:32;13.20;99.90
53073;DHT22;38955;48.916;2.336;2023-11-21T06:19:34;13.00;99.90
53073;DHT22;38955;48.916;2.336;2023-11-21T06:21:39;13.00;99.90
53073;DHT22;38955;48.916;2.336;2023-11-21T06:23:41;13.00;99.90
53073;DHT22;38955;48.916;2.336;2023-11-21T06:25:43;13.10;99.90
53073;DHT22;38955;48.916;2.336;2023-11-21T06:27:47;13.20;99.90
53073;DHT22;38955;48.916;2.336;2023-11-21T06:29:50;13.20;99.90
53073;DHT22;38955;48.916;2.336;2023-11-21T06:31:53;13.10;99.90
53073;DHT22;38955;48.916;2.336;2023-11-21T06:33:56;13.10;99.90
53073;DHT22;38955;48.916;2.336;2023-11-21T06:36:00;13.10;99.90
53073;DHT22;38955;48.916;2.336;2023-11-21T06:38:04;13.10;99.90
53073;DHT22;38955;48.916;2.336;2023-11-21T06:40:07;13.10;99.90
53073;DHT22;38955;48.916;2.336;2023-11-21T06:42:11;13.10;99.90
53073;DHT22;38955;48.916;2.336;2023-11-21T06:44:13;13.20;99.90
53073;DHT22;38955;48.916;2.336;2023-11-21T06:46:15;13.20;99.90
53073;DHT22;38955;48.916;2.336;2023-11-21T06:48:19;13.10;99.90
53073;DHT22;38955;48.916;2.336;2023-11-21T06:50:21;13.20;99.90
53073;DHT22;38955;48.916;2.336;2023-11-21T06:52:24;13.20;99.90
53073;DHT22;38955;48.916;2.336;2023-11-21T06:54:26;13.20;99.90
53073;DHT22;38955;48.916;2.336;2023-11-21T06:56:28;13.30;99.90
53073;DHT22;38955;48.916;2.336;2023-11-21T06:58:30;13.30;99.90
53073;DHT22;38955;48.916;2.336;2023-11-21T07:00:34;13.30;99.90
53073;DHT22;38955;48.916;2.336;2023-11-21T07:02:36;13.30;99.90
53073;DHT22;38955;48.916;2.336;2023-11-21T07:04:40;13.30;99.90
53073;DHT22;38955;48.916;2.336;2023-11-21T07:06:42;13.30;99.90
53073;DHT22;38955;48.916;2.336;2023-11-21T07:08:45;13.30;99.90
53073;DHT22;38955;48.916;2.336;2023-11-21T07:10:47;13.20;99.90
53073;DHT22;38955;48.916;2.336;2023-11-21T07:12:49;13.20;99.90
53073;DHT22;38955;48.916;2.336;2023-11-21T07:14:53;13.30;99.90
53073;DHT22;38955;48.916;2.336;2023-11-21T07:16:55;13.40;99.90
53073;DHT22;38955;48.916;2.336;2023-11-21T07:18:58;13.40;99.90
53073;DHT22;38955;48.916;2.336;2023-11-21T07:21:02;13.40;99.90
53073;DHT22;38955;48.916;2.336;2023-11-21T07:23:04;13.30;99.90
53073;DHT22;38955;48.916;2.336;2023-11-21T07:25:07;13.30;99.90
53073;DHT22;38955;48.916;2.336;2023-11-21T07:27:11;13.40;99.90
53073;DHT22;38955;48.916;2.336;2023-11-21T07:29:13;13.40;99.90
53073;DHT22;38955;48.916;2.336;2023-11-21T07:31:15;13.40;99.90
53073;DHT22;38955;48.916;2.336;2023-11-21T07:33:17;13.40;99.90
53073;DHT22;38955;48.916;2.336;2023-11-21T07:35:19;13.30;99.90
53073;DHT22;38955;48.916;2.336;2023-11-21T07:37:23;13.30;99.90
53073;DHT22;38955;48.916;2.336;2023-11-21T07:39:25;13.40;99.90
53073;DHT22;38955;48.916;2.336;2023-11-21T07:41:27;13.40;99.90
53073;DHT22;38955;48.916;2.336;2023-11-21T07:43:32;13.50;99.90
53073;DHT22;38955;48.916;2.336;2023-11-21T07:45:37;13.50;99.90
53073;DHT22;38955;48.916;2.336;2023-11-21T07:47:39;13.40;99.90
53073;DHT22;38955;48.916;2.336;2023-11-21T07:49:42;13.50;99.90
53073;DHT22;38955;48.916;2.336;2023-11-21T07:51:46;13.50;99.90
53073;DHT22;38955;48.916;2.336;2023-11-21T07:53:49;13.50;99.90
53073;DHT22;38955;48.916;2.336;2023-11-21T07:55:51;13.50;99.90
53073;DHT22;38955;48.916;2.336;2023-11-21T07:57:53;13.50;99.90
53073;DHT22;38955;48.916;2.336;2023-11-21T07:59:55;13.50;99.90
53073;DHT22;38955;48.916;2.336;2023-11-21T08:01:57;13.50;99.90
53073;DHT22;38955;48.916;2.336;2023-11-21T08:04:00;13.50;99.90
53073;DHT22;38955;48.916;2.336;2023-11-21T08:06:06;13.50;99.90
53073;DHT22;38955;48.916;2.336;2023-11-21T08:08:09;13.60;99.90
53073;DHT22;38955;48.916;2.336;2023-11-21T08:10:13;13.50;99.90
53073;DHT22;38955;48.916;2.336;2023-11-21T08:12:15;13.50;99.90
53073;DHT22;38955;48.916;2.336;2023-11-21T08:14:17;13.30;99.90
53073;DHT22;38955;48.916;2.336;2023-11-21T08:16:19;13.30;99.90
53073;DHT22;38955;48.916;2.336;2023-11-21T08:18:22;13.20;99.90
53073;DHT22;38955;48.916;2.336;2023-11-21T08:20:24;13.20;99.90
53073;DHT22;38955;48.916;2.336;2023-11-21T08:22:27;13.10;99.90
53073;DHT22;38955;48.916;2.336;2023-11-21T08:24:29;13.20;99.90
53073;DHT22;38955;48.916;2.336;2023-11-21T08:26:32;13.30;99.90
53073;DHT22;38955;48.916;2.336;2023-11-21T08:28:34;13.30;99.90
53073;DHT22;38955;48.916;2.336;2023-11-21T08:30:37;13.20;99.90
53073;DHT22;38955;48.916;2.336;2023-11-21T08:32:39;13.20;99.90
53073;DHT22;38955;48.916;2.336;2023-11-21T08:34:41;13.20;99.90
53073;DHT22;38955;48.916;2.336;2023-11-21T08:36:46;13.30;99.90
53073;DHT22;38955;48.916;2.336;2023-11-21T08:38:48;13.30;99.90
53073;DHT22;38955;48.916;2.336;2023-11-21T08:40:50;13.30;99.90
53073;DHT22;38955;48.916;2.336;2023-11-21T08:42:54;13.40;99.90
53073;DHT22;38955;48.916;2.336;2023-11-21T08:44:56;13.40;99.90
53073;DHT22;38955;48.916;2.336;2023-11-21T08:46:59;13.50;99.90
53073;DHT22;38955;48.916;2.336;2023-11-21T08:49:01;13.50;99.90
53073;DHT22;38955;48.916;2.336;2023-11-21T08:51:04;13.50;99.90
53073;DHT22;38955;48.916;2.336;2023-11-21T08:53:07;13.60;99.90
53073;DHT22;38955;48.916;2.336;2023-11-21T08:55:09;13.60;99.90
53073;DHT22;38955;48.916;2.336;2023-11-21T08:57:13;13.70;99.90
53073;DHT22;38955;48.916;2.336;2023-11-21T08:59:17;13.60;99.90
53073;DHT22;38955;48.916;2.336;2023-11-21T09:01:19;13.60;99.90
53073;DHT22;38955;48.916;2.336;2023-11-21T09:03:21;13.60;99.90
53073;DHT22;38955;48.916;2.336;2023-11-21T09:05:23;13.40;99.90
53073;DHT22;38955;48.916;2.336;2023-11-21T09:07:25;13.40;99.90
53073;DHT22;38955;48.916;2.336;2023-11-21T09:09:27;13.30;99.90
53073;DHT22;38955;48.916;2.336;2023-11-21T09:11:30;13.30;99.90
53073;DHT22;38955;48.916;2.336;2023-11-21T09:13:35;13.30;99.90
53073;DHT22;38955;48.916;2.336;2023-11-21T09:15:39;13.30;99.90
53073;DHT22;38955;48.916;2.336;2023-11-21T09:17:42;13.40;99.90
53073;DHT22;38955;48.916;2.336;2023-11-21T09:19:45;13.50;99.90
53073;DHT22;38955;48.916;2.336;2023-11-21T09:21:51;13.60;99.90
53073;DHT22;38955;48.916;2.336;2023-11-21T09:23:54;13.60;99.90
53073;DHT22;38955;48.916;2.336;2023-11-21T09:25:56;13.70;99.90
53073;DHT22;38955;48.916;2.336;2023-11-21T09:27:58;13.70;99.90
53073;DHT22;38955;48.916;2.336;2023-11-21T09:30:00;13.70;99.90
53073;DHT22;38955;48.916;2.336;2023-11-21T09:32:04;13.80;99.90
53073;DHT22;38955;48.916;2.336;2023-11-21T09:34:08;13.80;99.90
53073;DHT22;38955;48.916;2.336;2023-11-21T09:36:13;13.80;99.90
53073;DHT22;38955;48.916;2.336;2023-11-21T09:38:16;13.90;99.90
53073;DHT22;38955;48.916;2.336;2023-11-21T09:40:21;14.00;99.90
53073;DHT22;38955;48.916;2.336;2023-11-21T09:42:37;14.00;99.90
53073;DHT22;38955;48.916;2.336;2023-11-21T09:44:48;14.00;99.90
53073;DHT22;38955;48.916;2.336;2023-11-21T09:46:53;13.90;99.90
53073;DHT22;38955;48.916;2.336;2023-11-21T09:49:00;13.90;99.90
53073;DHT22;38955;48.916;2.336;2023-11-21T09:51:03;14.00;99.90
53073;DHT22;38955;48.916;2.336;2023-11-21T09:53:13;14.00;99.90
53073;DHT22;38955;48.916;2.336;2023-11-21T09:55:18;14.10;99.90
53073;DHT22;38955;48.916;2.336;2023-11-21T09:57:23;14.10;99.90
53073;DHT22;38955;48.916;2.336;2023-11-21T09:59:30;14.00;99.90
53073;DHT22;38955;48.916;2.336;2023-11-21T10:01:36;14.00;99.90
53073;DHT22;38955;48.916;2.336;2023-11-21T10:03:39;14.00;99.90
53073;DHT22;38955;48.916;2.336;2023-11-21T10:05:44;14.00;99.90
53073;DHT22;38955;48.916;2.336;2023-11-21T10:07:50;14.10;99.90
53073;DHT22;38955;48.916;2.336;2023-11-21T10:09:53;14.00;99.90
53073;DHT22;38955;48.916;2.336;2023-11-21T10:11:57;14.10;99.90
53073;DHT22;38955;48.916;2.336;2023-11-21T10:14:00;14.00;99.90
53073;DHT22;38955;48.916;2.336;2023-11-21T10:16:05;13.90;99.90
53073;DHT22;38955;48.916;2.336;2023-11-21T10:18:11;14.00;99.90
53073;DHT22;38955;48.916;2.336;2023-11-21T10:20:14;14.00;99.90
53073;DHT22;38955;48.916;2.336;2023-11-21T10:22:17;13.80;99.90
53073;DHT22;38955;48.916;2.336;2023-11-21T10:24:21;13.90;99.90
53073;DHT22;38955;48.916;2.336;2023-11-21T10:26:26;13.90;99.90
53073;DHT22;38955;48.916;2.336;2023-11-21T10:28:35;13.90;99.90
53073;DHT22;38955;48.916;2.336;2023-11-21T10:30:39;13.80;99.90
53073;DHT22;38955;48.916;2.336;2023-11-21T10:32:42;13.70;99.90
53073;DHT22;38955;48.916;2.336;2023-11-21T10:34:55;13.70;99.90
53073;DHT22;38955;48.916;2.336;2023-11-21T10:36:58;13.80;99.90
53073;DHT22;38955;48.916;2.336;2023-11-21T10:39:01;13.80;99.90
53073;DHT22;38955;48.916;2.336;2023-11-21T10:41:03;14.00;99.90
53073;DHT22;38955;48.916;2.336;2023-11-21T10:43:09;14.00;99.90
53073;DHT22;38955;48.916;2.336;2023-11-21T10:45:12;14.00;99.90
53073;DHT22;38955;48.916;2.336;2023-11-21T10:47:16;14.00;99.90
53073;DHT22;38955;48.916;2.336;2023-11-21T10:49:21;14.10;99.90
53073;DHT22;38955;48.916;2.336;2023-11-21T10:51:23;14.00;99.90
53073;DHT22;38955;48.916;2.336;2023-11-21T10:53:28;14.00;99.90
53073;DHT22;38955;48.916;2.336;2023-11-21T10:55:33;13.90;99.90
53073;DHT22;38955;48.916;2.336;2023-11-21T10:57:35;13.90;99.90
53073;DHT22;38955;48.916;2.336;2023-11-21T10:59:38;14.00;99.90
53073;DHT22;38955;48.916;2.336;2023-11-21T11:01:42;14.00;99.90
53073;DHT22;38955;48.916;2.336;2023-11-21T11:03:47;14.10;99.90
53073;DHT22;38955;48.916;2.336;2023-11-21T11:05:55;14.20;99.90
53073;DHT22;38955;48.916;2.336;2023-11-21T11:07:59;14.30;99.90
53073;DHT22;38955;48.916;2.336;2023-11-21T11:10:03;14.30;99.90
53073;DHT22;38955;48.916;2.336;2023-11-21T11:12:08;14.30;99.90
53073;DHT22;38955;48.916;2.336;2023-11-21T11:14:11;14.30;99.90
53073;DHT22;38955;48.916;2.336;2023-11-21T11:16:15;14.30;99.90
53073;DHT22;38955;48.916;2.336;2023-11-21T11:18:19;14.40;99.90
53073;DHT22;38955;48.916;2.336;2023-11-21T11:20:24;14.40;99.90
53073;DHT22;38955;48.916;2.336;2023-11-21T11:22:36;14.40;99.90
53073;DHT22;38955;48.916;2.336;2023-11-21T11:25:03;14.50;99.90
53073;DHT22;38955;48.916;2.336;2023-11-21T11:27:18;14.50;99.90
53073;DHT22;38955;48.916;2.336;2023-11-21T11:29:30;14.50;99.90
53073;DHT22;38955;48.916;2.336;2023-11-21T11:31:45;14.60;99.90
53073;DHT22;38955;48.916;2.336;2023-11-21T11:33:54;14.50;99.90
53073;DHT22;38955;48.916;2.336;2023-11-21T11:36:02;14.50;99.90
53073;DHT22;38955;48.916;2.336;2023-11-21T11:38:06;14.40;99.90
53073;DHT22;38955;48.916;2.336;2023-11-21T11:40:11;14.50;99.90
53073;DHT22;38955;48.916;2.336;2023-11-21T11:42:16;14.50;99.90
53073;DHT22;38955;48.916;2.336;2023-11-21T11:46:56;14.50;99.90
53073;DHT22;38955;48.916;2.336;2023-11-21T11:49:03;14.50;99.90
53073;DHT22;38955;48.916;2.336;2023-11-21T11:51:06;14.50;99.90
53073;DHT22;38955;48.916;2.336;2023-11-21T11:53:15;14.50;99.90
53073;DHT22;38955;48.916;2.336;2023-11-21T11:55:18;14.50;99.90
53073;DHT22;38955;48.916;2.336;2023-11-21T11:57:24;14.60;99.90
53073;DHT22;38955;48.916;2.336;2023-11-21T11:59:26;14.60;99.90
53073;DHT22;38955;48.916;2.336;2023-11-21T12:01:28;14.60;99.90
53073;DHT22;38955;48.916;2.336;2023-11-21T12:03:31;14.50;99.90
53073;DHT22;38955;48.916;2.336;2023-11-21T12:05:35;14.50;99.90
53073;DHT22;38955;48.916;2.336;2023-11-21T12:07:48;14.90;99.90
53073;DHT22;38955;48.916;2.336;2023-11-21T12:09:50;14.80;99.90
53073;DHT22;38955;48.916;2.336;2023-11-21T12:11:53;14.70;99.90
53073;DHT22;38955;48.916;2.336;2023-11-21T12:13:58;14.80;99.90
53073;DHT22;38955;48.916;2.336;2023-11-21T12:16:01;15.10;99.90
53073;DHT22;38955;48.916;2.336;2023-11-21T12:18:04;15.10;99.90
53073;DHT22;38955;48.916;2.336;2023-11-21T12:20:07;15.10;99.90
53073;DHT22;38955;48.916;2.336;2023-11-21T12:22:19;15.10;99.90
53073;DHT22;38955;48.916;2.336;2023-11-21T12:24:21;15.10;99.90
53073;DHT22;38955;48.916;2.336;2023-11-21T12:26:27;15.20;99.90
53073;DHT22;38955;48.916;2.336;2023-11-21T12:28:29;15.20;99.90
53073;DHT22;38955;48.916;2.336;2023-11-21T12:30:33;15.20;99.90
53073;DHT22;38955;48.916;2.336;2023-11-21T12:32:37;15.20;99.90
53073;DHT22;38955;48.916;2.336;2023-11-21T12:34:39;15.10;99.90
53073;DHT22;38955;48.916;2.336;2023-11-21T12:36:42;15.10;99.90
53073;DHT22;38955;48.916;2.336;2023-11-21T12:38:44;15.10;99.90
53073;DHT22;38955;48.916;2.336;2023-11-21T12:40:46;15.10;99.90
53073;DHT22;38955;48.916;2.336;2023-11-21T12:42:52;15.00;99.90
53073;DHT22;38955;48.916;2.336;2023-11-21T12:45:07;15.00;99.90
53073;DHT22;38955;48.916;2.336;2023-11-21T12:47:11;15.00;99.90
53073;DHT22;38955;48.916;2.336;2023-11-21T12:49:18;14.90;99.90
53073;DHT22;38955;48.916;2.336;2023-11-21T12:51:21;14.70;99.90
53073;DHT22;38955;48.916;2.336;2023-11-21T12:53:24;14.80;99.90
53073;DHT22;38955;48.916;2.336;2023-11-21T12:55:26;14.70;99.90
53073;DHT22;38955;48.916;2.336;2023-11-21T12:57:28;14.60;99.90
53073;DHT22;38955;48.916;2.336;2023-11-21T12:59:31;14.50;99.90
53073;DHT22;38955;48.916;2.336;2023-11-21T13:01:34;14.50;99.90
53073;DHT22;38955;48.916;2.336;2023-11-21T13:03:39;14.50;99.90
53073;DHT22;38955;48.916;2.336;2023-11-21T13:05:43;14.60;99.90